Huvudsida
METAR-TAF:

METAR-TAF

Flygplatser :

Härjedalen Sveg Airport

Sveg, Sverige

latitud: 62-02-52N, longitud: 014-25-22E, höjd: 359 m

Aktuellt väderrapport

Denna rapport gjordes för 20 minuter sedan, klockan 04:50 UTC
Stilla vind
Temperatur -1°C
Fuktighet 100%
Tryck 1035 hPa
Sikt: 9000 m
fuktdis

METAR: ESND 170450Z AUTO 00000KT 9000 BR NCD M01/M01 Q1035

Tid: 06:10 (05:10 UTC)


TAF: saknas

Aktuella väderrapporter och prognoser från 4000 flygplatser (METAR- och TAF-rapporter).

De tillgängliga stationerna syns som gula och röda prickar på kartan.

För musen över prickarna för att se namnen på stationerna.

Klicka sedan för att få väderrapporter och prognoser.

För att ändra kartan: Klicka på de gröna knapparna med ett svart kors på för att zooma in; den gröna knappen med ett streck på för att zooma ut; eller på de gröna pilarna för angränsande kartor.


METAR-TAF: